LESOLFRS

Guest
Details From LESO - San Sebastian
To LFRS - Nantes Atlantique
Flight Number -
Tags Generated
Created
Modified
Stats Distance 229 nm / 424 km
Max Altitude 0 ft / 0 m
Waypoints 3
Social Downloads 5
Likes 0
Share VATSIM

Download

Looking for another format? Having issues loading an existing format? Contact us
Advertisement - Login to hide

Notes

Generated

Route

LESO SUDIL LFRS

ID Type Via Altitude Latitude Longitude Leg Dist Tot Dist Heading (true) Name
O LESO APT - 0 ft / 0 m 43.35035˚ -1.79740˚ - 0 nm - -
SUDIL FIX - 0 ft / 0 m 47.13419˚ -1.62531˚ 227 nm 227 nm 2° / 2° -
O LFRS APT - 0 ft / 0 m 47.16048˚ -1.61493˚ 1 nm 228 nm 15° / 15° Nantes_Atlantique

Altitude Profile

Advertisement - Login to hide

Weather


0- 5 10 15 20 25 30 35+ Temperature / ° C

Clouds and Precipitation
Forecast for 2018-05-26 18:00 UTC. Updated 5 hours ago

Ground ~20,000 ft ~40,000 ft Winds

LESO

Details ICAO LESO (EAS)
Name San_Sebastian
Region Spain
Timezone Europe/Madrid (UTC+2.0)
Stats Elevation 14 ft / 4 m (AMSL)
Location 43.356520° -1.790611°
Runways 1
Magnetic Variation 0.242° W

METAR

LESO 262200Z AUTO 24003KT 190V300 9999 FEW019/// 17/15 Q1014

Decode

TAF

TAF LESO 261700Z 2618/2718 VRB06KT 9999 SCT020 BKN035 TX22/2714Z TN16/2705Z PROB30 TEMPO 2618/2622 SHRA TS SCT030CB PROB40 TEMPO 2703/2709 4000 BR BKN010

Decode

Departure Runways

ID Width Length Bearing (true) Bearing (mag) Surface Threshold Offset Overrun Length
04 148 ft / 45 m 5,762 ft / 1,756 m 38.68° 38.92° Asphalt 0 ft / 0 m 0 ft / 0 m
22 148 ft / 45 m 5,762 ft / 1,756 m 218.69° 218.93° Asphalt 0 ft / 0 m 0 ft / 0 m

LFRS

Details ICAO LFRS (NTE)
Name Nantes_Atlantique
Region France
Timezone Europe/Paris (UTC+2.0)
Stats Elevation 89 ft / 27 m (AMSL)
Location 47.156040° -1.611186°
Runways 2
Magnetic Variation 0.450° W

METAR

LFRS 262200Z AUTO 19004KT CAVOK 17/15 Q1013 NOSIG

Decode

TAF

TAF LFRS 261700Z 2618/2724 18005KT 9999 SCT040 BKN100 TEMPO 2618/2620 -SHRA SCT040CB TEMPO 2700/2710 3000 BR BKN004 PROB30 TEMPO 2703/2706 0600 FG VV/// BECMG 2712/2714 24010KT

Decode

Destination Runways

ID Width Length Bearing (true) Bearing (mag) Surface Threshold Offset Overrun Length
03 148 ft / 45 m 9,526 ft / 2,903 m 27.35° 27.80° Asphalt 0 ft / 0 m 0 ft / 0 m
13 100 ft / 30 m 1,999 ft / 609 m 125.55° 126.00° Concrete 0 ft / 0 m 0 ft / 0 m
21 148 ft / 45 m 9,526 ft / 2,903 m 207.37° 207.82° Asphalt 689 ft / 210 m 0 ft / 0 m
31 100 ft / 30 m 1,999 ft / 609 m 305.56° 306.01° Concrete 0 ft / 0 m 0 ft / 0 m

Approach Navaids

Runway Type Ident Frequency Range Bearing (true) Bearing (mag) Slope Elevation
03 Localiser NT 109.90 MHz 27 nm / 50 km 27.42° 27.87° - 89 ft / 27 m (AMSL)
03 Glidescope NT 109.90 MHz 27 nm / 50 km 27.42° 27.87° 3.00° 89 ft / 27 m (AMSL)
03 DME NT 109.90 MHz 27 nm / 50 km - - - 89 ft / 27 m (AMSL)